This is the latest recevied weather packets stored in our database for station/object SIILIN. If no packets are shown the sender has not sent any weather packets the latest 10 day(s).
| Time | Temp. | Humidity | Pressure | Rain* | Wind** | Luminosity | Snow |
|---|---|---|---|---|---|---|---|
| 1777607219 | 5.56° C | 89% | 1020.6 hPa | - | - | - | - |
| 1777606020 | 5.56° C | 86% | 1020.8 hPa | - | - | - | - |
| 1777604819 | 6.11° C | 85% | 1020.8 hPa | - | - | - | - |
| 1777603620 | 6.11° C | 84% | 1020.8 hPa | - | - | - | - |
| 1777602419 | 6.11° C | 84% | 1021 hPa | - | - | - | - |
| 1777601218 | 6.67° C | 83% | 1021 hPa | - | - | - | - |
| 1777600019 | 6.67° C | 84% | 1021 hPa | - | - | - | - |
| 1777598819 | 6.67° C | 82% | 1021.1 hPa | - | - | - | - |
| 1777597619 | 6.67° C | 82% | 1021.1 hPa | - | - | - | - |
| 1777596418 | 7.22° C | 78% | 1021 hPa | - | - | - | - |
| 1777595219 | 7.78° C | 76% | 1021.1 hPa | - | - | - | - |
| 1777594018 | 7.78° C | 77% | 1021.1 hPa | - | - | - | - |
| 1777592819 | 8.33° C | 76% | 1021.1 hPa | - | - | - | - |
| 1777591618 | 8.89° C | 72% | 1021.1 hPa | - | - | - | - |
| 1777590418 | 9.44° C | 69% | 1021.1 hPa | - | - | - | - |
| 1777589218 | 8.33° C | 77% | 1021.2 hPa | - | - | - | - |
| 1777588018 | 9.44° C | 69% | 1021.1 hPa | - | - | - | - |
| 1777586817 | 10° C | 68% | 1021.1 hPa | - | - | - | - |
| 1777585618 | 10° C | 67% | 1021.1 hPa | - | - | - | - |
| 1777584418 | 10.56° C | 65% | 1021.2 hPa | - | - | - | - |
| 1777583218 | 10.56° C | 65% | 1021.1 hPa | - | - | - | - |
| 1777582018 | 11.67° C | 63% | 1021 hPa | - | - | - | - |
| 1777580817 | 11.67° C | 62% | 1020.8 hPa | - | - | - | - |
| 1777579617 | 11.67° C | 61% | 1020.7 hPa | - | - | - | - |
| 1777578417 | 12.22° C | 62% | 1020.7 hPa | - | - | - | - |
* Rain since midnight (hover to see other rain measurements)
** Current wind speed in m/s (hover to see current wind gust speed)